Time;durP1;ratioP1;P1;durP2;ratioP2;P2;SDS_P1;SDS_P2;PMS_P1;PMS_P2;Temp;Humidity;BMP_temperature;BMP_pressure;BME280_temperature;BME280_humidity;BME280_pressure;Samples;Min_cycle;Max_cycle;Signal;HPM_P1;HPM_P2
2022/05/07 00:00:54;;;;;;;17.50;11.35;;;12.90;99.90;;;;;;5111756;28;20044;-66
2022/05/07 00:03:20;;;;;;;15.25;10.85;;;12.90;99.90;;;;;;5111903;28;20491;-66
2022/05/07 00:05:45;;;;;;;15.45;11.32;;;12.90;99.90;;;;;;5112135;28;20038;-66
2022/05/07 00:08:11;;;;;;;15.38;10.95;;;13.00;99.90;;;;;;5111935;28;20088;-66
2022/05/07 00:10:36;;;;;;;14.50;11.38;;;12.90;99.90;;;;;;5111538;28;20042;-66
2022/05/07 00:13:04;;;;;;;13.73;11.52;;;12.90;99.90;;;;;;5111538;28;20040;-66
2022/05/07 00:15:30;;;;;;;23.13;12.05;;;12.90;99.90;;;;;;5110809;28;20124;-66
2022/05/07 00:18:02;;;;;;;16.92;13.23;;;12.90;99.90;;;;;;5111509;28;20090;-66
2022/05/07 00:20:28;;;;;;;20.47;13.43;;;12.80;99.90;;;;;;5111610;28;20086;-66
2022/05/07 00:22:57;;;;;;;22.92;14.55;;;12.70;99.90;;;;;;5111629;28;20352;-66
2022/05/07 00:25:23;;;;;;;19.95;13.77;;;12.60;99.90;;;;;;5111563;28;20043;-66
2022/05/07 00:27:49;;;;;;;26.75;14.93;;;12.30;99.90;;;;;;5110513;28;20138;-66
2022/05/07 00:30:15;;;;;;;20.25;14.43;;;12.30;99.90;;;;;;5111060;28;20119;-66
2022/05/07 00:32:40;;;;;;;22.02;14.73;;;12.30;99.90;;;;;;5110610;28;20165;-66
2022/05/07 00:35:06;;;;;;;18.85;13.88;;;12.40;99.90;;;;;;5111465;28;20115;-66
2022/05/07 00:37:32;;;;;;;18.77;13.80;;;12.50;99.90;;;;;;5111461;28;20036;-66
2022/05/07 00:39:58;;;;;;;20.90;15.35;;;12.50;99.90;;;;;;5110953;28;20546;-66
2022/05/07 00:42:23;;;;;;;21.30;15.57;;;12.50;99.90;;;;;;5111050;28;20036;-66
2022/05/07 00:44:49;;;;;;;27.92;15.95;;;12.30;99.90;;;;;;5110805;28;20468;-66
2022/05/07 00:47:14;;;;;;;20.10;14.98;;;12.30;99.90;;;;;;5110362;28;20446;-66
2022/05/07 00:49:48;;;;;;;32.63;16.77;;;12.30;99.90;;;;;;5110891;28;20491;-66
2022/05/07 00:52:15;;;;;;;22.08;16.23;;;12.50;99.90;;;;;;5111393;28;20764;-66
2022/05/07 00:54:41;;;;;;;24.50;16.02;;;12.40;99.90;;;;;;5110890;28;20043;-66
2022/05/07 00:57:10;;;;;;;22.52;16.35;;;12.50;99.90;;;;;;5110821;28;20040;-66
2022/05/07 00:59:35;;;;;;;24.80;15.98;;;12.50;99.90;;;;;;5109661;28;20035;-66
2022/05/07 01:02:01;;;;;;;24.65;16.15;;;12.50;99.90;;;;;;5109376;28;20112;-66
2022/05/07 01:04:26;;;;;;;22.40;17.35;;;12.50;99.90;;;;;;5109499;28;20496;-66
2022/05/07 01:06:53;;;;;;;22.77;15.45;;;12.50;99.90;;;;;;5110155;28;20491;-66
2022/05/07 01:09:20;;;;;;;22.42;15.80;;;12.50;99.90;;;;;;5110973;28;20032;-66
2022/05/07 01:11:46;;;;;;;23.13;16.73;;;12.60;99.90;;;;;;5092698;28;20119;-66
2022/05/07 01:14:12;;;;;;;22.30;15.77;;;12.70;99.90;;;;;;5110902;28;20075;-66
2022/05/07 01:16:37;;;;;;;29.83;18.00;;;12.70;99.90;;;;;;5111024;28;20075;-66
2022/05/07 01:19:03;;;;;;;24.77;17.08;;;12.70;99.90;;;;;;5110782;28;20488;-66
2022/05/07 01:21:29;;;;;;;24.98;17.60;;;12.60;99.90;;;;;;5111056;28;20043;-66
2022/05/07 01:23:55;;;;;;;25.02;19.23;;;12.60;99.90;;;;;;5111095;28;20043;-66
2022/05/07 01:26:22;;;;;;;26.13;17.45;;;12.50;99.90;;;;;;5110550;28;20032;-66
2022/05/07 01:28:48;;;;;;;27.17;18.58;;;12.50;99.90;;;;;;5109577;28;20036;-66
2022/05/07 01:31:14;;;;;;;24.67;18.38;;;12.50;99.90;;;;;;5110709;28;20028;-66
2022/05/07 01:33:40;;;;;;;27.90;17.83;;;12.60;99.90;;;;;;5111062;28;20047;-66
2022/05/07 01:36:16;;;;;;;29.45;17.88;;;12.60;99.90;;;;;;5110607;28;20051;-66
2022/05/07 01:38:42;;;;;;;30.55;19.17;;;12.50;99.90;;;;;;5110115;28;20082;-66
2022/05/07 01:41:07;;;;;;;27.70;19.23;;;12.50;99.90;;;;;;5109688;28;20074;-66
2022/05/07 01:43:33;;;;;;;29.20;19.85;;;12.50;99.90;;;;;;5109033;28;20120;-66
2022/05/07 01:46:03;;;;;;;28.55;19.45;;;12.60;99.90;;;;;;5109021;28;20031;-66
2022/05/07 01:48:29;;;;;;;31.35;20.88;;;12.60;99.90;;;;;;5109212;28;20507;-66
2022/05/07 01:50:55;;;;;;;28.65;20.60;;;12.60;99.90;;;;;;5109883;28;20114;-66
2022/05/07 01:53:22;;;;;;;28.15;19.80;;;12.60;99.90;;;;;;5091383;28;20545;-66
2022/05/07 01:55:47;;;;;;;29.05;19.42;;;12.60;99.90;;;;;;5091805;28;20067;-66
2022/05/07 01:58:13;;;;;;;31.50;20.58;;;12.60;99.90;;;;;;5110423;28;20070;-66
2022/05/07 02:00:42;;;;;;;30.27;21.55;;;12.50;99.90;;;;;;5109219;28;20574;-66
2022/05/07 02:03:08;;;;;;;32.85;21.27;;;12.50;99.90;;;;;;5110478;28;20036;-66
2022/05/07 02:05:34;;;;;;;32.40;20.65;;;12.40;99.90;;;;;;5110584;28;20036;-66
2022/05/07 02:08:00;;;;;;;30.27;20.05;;;12.40;99.90;;;;;;5112642;28;20043;-66
2022/05/07 02:10:26;;;;;;;30.60;21.08;;;12.50;99.90;;;;;;5113738;28;20043;-66
2022/05/07 02:12:52;;;;;;;29.58;20.10;;;12.60;99.90;;;;;;5114323;28;20559;-66
2022/05/07 02:15:18;;;;;;;30.92;21.25;;;12.60;99.90;;;;;;5114073;28;20049;-66
2022/05/07 02:17:44;;;;;;;28.98;20.35;;;12.60;99.90;;;;;;5113224;28;20061;-66
2022/05/07 02:20:10;;;;;;;30.33;21.48;;;12.70;99.90;;;;;;5113236;28;20555;-66
2022/05/07 02:22:35;;;;;;;29.10;21.40;;;12.70;99.90;;;;;;5113041;28;20153;-67
2022/05/07 02:25:02;;;;;;;31.58;20.83;;;12.60;99.90;;;;;;5113639;28;20036;-67
2022/05/07 02:27:27;;;;;;;29.75;19.73;;;12.70;99.90;;;;;;5113972;28;20402;-66
2022/05/07 02:29:53;;;;;;;29.02;20.60;;;12.60;99.90;;;;;;5113566;28;20106;-66
2022/05/07 02:32:19;;;;;;;31.08;20.25;;;12.60;99.90;;;;;;5113823;28;20659;-67
2022/05/07 02:34:45;;;;;;;33.25;21.17;;;12.60;99.90;;;;;;5113603;28;20043;-67
2022/05/07 02:37:10;;;;;;;28.75;20.73;;;12.60;99.90;;;;;;5113527;28;20062;-66
2022/05/07 02:39:36;;;;;;;31.63;21.00;;;12.60;99.90;;;;;;5113220;28;20134;-66
2022/05/07 02:44:47;;;;;;;25.92;18.75;;;12.60;99.90;;;;;;5112758;28;20040;-66
2022/05/07 02:47:12;;;;;;;27.23;21.27;;;12.70;99.90;;;;;;5113189;28;20496;-66
2022/05/07 02:49:38;;;;;;;30.75;19.77;;;12.70;99.90;;;;;;5113120;28;20122;-66
2022/05/07 02:52:04;;;;;;;29.63;20.90;;;12.70;99.90;;;;;;5113117;28;20462;-66
2022/05/07 02:54:29;;;;;;;30.13;21.80;;;12.70;99.90;;;;;;5113312;28;20088;-66
2022/05/07 02:56:56;;;;;;;27.02;20.35;;;12.70;99.90;;;;;;5113014;28;20122;-66
2022/05/07 02:59:22;;;;;;;30.17;20.08;;;12.80;99.90;;;;;;5112813;28;20050;-67
2022/05/07 03:01:48;;;;;;;27.70;21.05;;;12.80;99.90;;;;;;5113116;28;20032;-66
2022/05/07 03:04:13;;;;;;;31.30;21.77;;;12.80;99.90;;;;;;5094972;28;20040;-66
2022/05/07 03:06:39;;;;;;;29.90;20.92;;;12.80;99.90;;;;;;5112724;28;20042;-66
2022/05/07 03:09:05;;;;;;;31.15;21.45;;;12.80;99.90;;;;;;5112698;28;20118;-66
2022/05/07 03:11:33;;;;;;;32.38;21.70;;;12.80;99.90;;;;;;5112159;28;20376;-67
2022/05/07 03:14:02;;;;;;;33.08;21.88;;;12.80;99.90;;;;;;5112844;28;20131;-66
2022/05/07 03:16:28;;;;;;;29.90;21.23;;;12.80;99.90;;;;;;5112842;28;20036;-66
2022/05/07 03:18:54;;;;;;;31.77;22.25;;;12.80;99.90;;;;;;5110958;28;20707;-66
2022/05/07 03:21:19;;;;;;;32.28;22.33;;;12.90;99.90;;;;;;5112757;28;20054;-66
2022/05/07 03:23:46;;;;;;;31.85;21.83;;;12.80;99.90;;;;;;5112695;28;20467;-67
2022/05/07 03:26:12;;;;;;;33.70;22.80;;;12.80;99.90;;;;;;5112791;28;20044;-66
2022/05/07 03:28:39;;;;;;;32.28;22.50;;;12.90;99.90;;;;;;5111587;28;20067;-66
2022/05/07 03:31:05;;;;;;;36.75;22.60;;;12.80;99.90;;;;;;5112660;28;20043;-66
2022/05/07 03:33:30;;;;;;;32.90;20.70;;;12.80;99.90;;;;;;5112232;28;20457;-67
2022/05/07 03:35:57;;;;;;;31.88;22.20;;;12.80;99.90;;;;;;5112434;28;20051;-66
2022/05/07 03:38:22;;;;;;;32.65;21.42;;;12.70;99.90;;;;;;5112103;28;20035;-67
2022/05/07 03:40:48;;;;;;;32.33;21.38;;;12.60;99.90;;;;;;5112374;28;20049;-66
2022/05/07 03:43:14;;;;;;;37.92;22.20;;;12.50;99.90;;;;;;5112310;28;20739;-66
2022/05/07 03:45:40;;;;;;;34.55;21.55;;;12.50;99.90;;;;;;5112190;28;20046;-66
2022/05/07 03:48:06;;;;;;;32.75;22.27;;;12.50;99.90;;;;;;5111337;28;20059;-66
2022/05/07 03:50:32;;;;;;;35.83;23.75;;;12.50;99.90;;;;;;5111395;28;20136;-66
2022/05/07 03:55:41;;;;;;;30.90;21.73;;;12.40;99.90;;;;;;5112036;28;20043;-66
2022/05/07 03:58:11;;;;;;;32.90;21.15;;;12.30;99.90;;;;;;5111348;28;20040;-67
2022/05/07 04:00:39;;;;;;;30.90;22.00;;;12.40;99.90;;;;;;5108584;28;20051;-66
2022/05/07 04:03:05;;;;;;;33.95;23.45;;;12.40;99.90;;;;;;5108918;28;20043;-67
2022/05/07 04:05:31;;;;;;;32.75;22.42;;;12.40;99.90;;;;;;5109839;28;20107;-67
2022/05/07 04:07:56;;;;;;;31.70;22.30;;;12.30;99.90;;;;;;5111903;28;20043;-67
2022/05/07 04:10:22;;;;;;;32.55;23.48;;;12.30;99.90;;;;;;5110785;28;20035;-66
2022/05/07 04:12:50;;;;;;;31.20;22.13;;;12.30;99.90;;;;;;5111306;28;20419;-67
2022/05/07 04:15:19;;;;;;;34.17;23.73;;;12.30;99.90;;;;;;5111384;28;20075;-66
2022/05/07 04:17:45;;;;;;;32.72;22.58;;;12.40;99.90;;;;;;5111271;28;20127;-66
2022/05/07 04:20:12;;;;;;;35.08;24.30;;;12.30;99.90;;;;;;5110864;28;20075;-66
2022/05/07 04:22:38;;;;;;;31.73;22.88;;;12.40;99.90;;;;;;5092056;28;20514;-66
2022/05/07 04:25:05;;;;;;;32.40;23.08;;;12.40;99.90;;;;;;5093305;28;20051;-66
2022/05/07 04:27:30;;;;;;;38.60;24.00;;;12.40;99.90;;;;;;5111352;28;20044;-66
2022/05/07 04:29:57;;;;;;;35.22;23.08;;;12.40;99.90;;;;;;5110806;28;20047;-67
2022/05/07 04:32:23;;;;;;;41.25;23.80;;;12.30;99.90;;;;;;5111297;28;20504;-66
2022/05/07 04:34:49;;;;;;;40.08;25.02;;;12.40;99.90;;;;;;5111711;28;20039;-66
2022/05/07 04:37:15;;;;;;;38.63;24.42;;;12.40;99.90;;;;;;5111424;28;20066;-66
2022/05/07 04:39:41;;;;;;;33.22;24.17;;;12.50;99.90;;;;;;5111169;28;20126;-66
2022/05/07 04:42:06;;;;;;;38.55;24.50;;;12.60;99.90;;;;;;5111272;28;20035;-66
2022/05/07 04:44:32;;;;;;;35.72;23.77;;;12.60;99.90;;;;;;5111211;28;20122;-66
2022/05/07 04:46:58;;;;;;;36.72;23.10;;;12.70;99.90;;;;;;5111042;28;20042;-66
2022/05/07 04:49:24;;;;;;;41.03;24.33;;;12.80;99.90;;;;;;5110525;28;20039;-66
2022/05/07 04:51:50;;;;;;;36.92;23.90;;;12.80;99.90;;;;;;5111336;28;20035;-67
2022/05/07 04:54:20;;;;;;;38.60;24.60;;;12.80;99.90;;;;;;5111022;28;20523;-66
2022/05/07 04:56:50;;;;;;;37.67;24.67;;;12.90;99.90;;;;;;5093053;28;20050;-66
2022/05/07 04:59:17;;;;;;;37.20;25.35;;;12.90;99.90;;;;;;5110514;28;20058;-67
2022/05/07 05:01:43;;;;;;;37.80;25.75;;;12.90;99.90;;;;;;5111392;28;20040;-66
2022/05/07 05:04:09;;;;;;;33.63;25.13;;;12.90;99.90;;;;;;5111020;28;20044;-66
2022/05/07 05:06:34;;;;;;;37.65;25.35;;;13.00;99.90;;;;;;5111037;28;20043;-66
2022/05/07 05:09:00;;;;;;;37.13;25.95;;;13.10;99.90;;;;;;5092671;28;20066;-66
2022/05/07 05:11:26;;;;;;;37.97;23.77;;;13.10;99.90;;;;;;5110086;28;20067;-67
2022/05/07 05:13:52;;;;;;;34.03;24.95;;;13.10;99.90;;;;;;5110600;28;20067;-67
2022/05/07 05:16:18;;;;;;;40.05;25.30;;;13.10;99.90;;;;;;5111123;28;20039;-66
2022/05/07 05:18:44;;;;;;;38.25;23.02;;;13.20;99.90;;;;;;5110771;28;20518;-67
2022/05/07 05:21:10;;;;;;;36.08;23.70;;;13.20;99.90;;;;;;5110961;28;20114;-66
2022/05/07 05:23:35;;;;;;;35.13;24.08;;;13.20;99.90;;;;;;5110966;28;20543;-66
2022/05/07 05:26:01;;;;;;;34.97;24.88;;;13.20;99.90;;;;;;5110852;28;20058;-66
2022/05/07 05:28:27;;;;;;;34.10;23.88;;;13.20;99.90;;;;;;5109526;28;20553;-67
2022/05/07 05:30:52;;;;;;;34.42;23.65;;;13.20;99.90;;;;;;5110298;28;20390;-66
2022/05/07 05:33:22;;;;;;;40.35;23.45;;;13.30;99.90;;;;;;5110325;28;20043;-67
2022/05/07 05:35:49;;;;;;;37.65;23.20;;;13.30;99.90;;;;;;5110719;28;20058;-66
2022/05/07 05:38:17;;;;;;;34.78;22.25;;;13.30;99.90;;;;;;5110066;28;20681;-66
2022/05/07 05:40:43;;;;;;;34.20;24.55;;;13.30;99.90;;;;;;5109659;28;20040;-66
2022/05/07 05:43:09;;;;;;;31.75;21.92;;;13.40;99.90;;;;;;5094141;28;20054;-67
2022/05/07 05:45:35;;;;;;;33.80;23.00;;;13.40;99.90;;;;;;5112902;28;20510;-67
2022/05/07 05:48:01;;;;;;;34.03;23.25;;;13.40;99.90;;;;;;5114667;28;20067;-67
2022/05/07 05:50:31;;;;;;;36.92;23.45;;;13.40;99.90;;;;;;5095884;28;20532;-66
2022/05/07 05:52:57;;;;;;;32.08;22.73;;;13.40;99.90;;;;;;5113761;28;20043;-67
2022/05/07 05:55:22;;;;;;;36.00;24.25;;;13.40;99.90;;;;;;5114397;28;20391;-67
2022/05/07 05:57:49;;;;;;;33.72;22.05;;;13.40;99.90;;;;;;5114342;28;20035;-67
2022/05/07 06:00:19;;;;;;;36.60;22.92;;;13.50;99.90;;;;;;5113078;28;20052;-67
2022/05/07 06:02:44;;;;;;;35.28;23.40;;;13.50;99.90;;;;;;5114113;28;20550;-67
2022/05/07 06:05:16;;;;;;;35.03;22.88;;;13.50;99.90;;;;;;5114241;28;20071;-66
2022/05/07 06:07:41;;;;;;;36.17;22.73;;;13.50;99.90;;;;;;5114035;28;20035;-67
2022/05/07 06:10:07;;;;;;;37.55;23.27;;;13.60;99.90;;;;;;5113848;28;20043;-67
2022/05/07 06:12:34;;;;;;;41.67;24.60;;;13.70;99.90;;;;;;5114072;28;20492;-66
2022/05/07 06:14:59;;;;;;;34.35;22.98;;;13.70;99.90;;;;;;5114235;28;20044;-67
2022/05/07 06:17:28;;;;;;;35.97;24.35;;;13.80;99.90;;;;;;5113808;28;20039;-67
2022/05/07 06:19:53;;;;;;;33.65;23.88;;;13.90;99.90;;;;;;5113619;28;20556;-67
2022/05/07 06:22:19;;;;;;;34.90;23.40;;;13.90;99.90;;;;;;5113869;28;20126;-67
2022/05/07 06:27:31;;;;;;;40.58;23.95;;;14.10;99.90;;;;;;5113783;28;20173;-67
2022/05/07 06:30:01;;;;;;;38.95;23.50;;;14.20;99.90;;;;;;5113662;28;20403;-67
2022/05/07 06:32:37;;;;;;;31.38;23.17;;;14.30;99.90;;;;;;5113856;28;20400;-67
2022/05/07 06:35:04;;;;;;;31.23;23.10;;;14.30;99.90;;;;;;5113444;28;20047;-66
2022/05/07 06:37:31;;;;;;;40.83;25.15;;;14.40;99.90;;;;;;5102413;28;20047;-66
2022/05/07 06:39:57;;;;;;;35.45;23.25;;;14.40;99.90;;;;;;5098276;28;20165;-66
2022/05/07 06:42:23;;;;;;;34.00;24.58;;;14.50;99.90;;;;;;5093319;28;20111;-66
2022/05/07 06:44:48;;;;;;;32.38;23.15;;;14.60;99.90;;;;;;5092891;28;20446;-66
2022/05/07 06:47:14;;;;;;;34.72;23.65;;;14.70;99.90;;;;;;5092479;28;20040;-66
2022/05/07 06:49:41;;;;;;;33.80;24.00;;;14.70;99.90;;;;;;5091997;28;20044;-66
2022/05/07 06:52:07;;;;;;;33.65;23.33;;;14.70;99.90;;;;;;5073673;28;20052;-66
2022/05/07 06:54:33;;;;;;;35.47;23.10;;;14.80;99.90;;;;;;5093077;28;20430;-66
2022/05/07 06:56:59;;;;;;;36.10;23.38;;;14.80;99.90;;;;;;5074811;28;20035;-66
2022/05/07 06:59:24;;;;;;;33.90;23.38;;;14.70;99.90;;;;;;5092336;28;20101;-66
2022/05/07 07:01:50;;;;;;;42.13;23.85;;;14.70;99.90;;;;;;5092811;28;20048;-66
2022/05/07 07:04:15;;;;;;;39.22;24.42;;;14.80;99.90;;;;;;5092592;28;20047;-66
2022/05/07 07:06:41;;;;;;;34.72;24.73;;;14.90;99.90;;;;;;5092407;28;20097;-66
2022/05/07 07:09:07;;;;;;;38.78;25.13;;;14.90;99.90;;;;;;5092509;28;20432;-66
2022/05/07 07:11:34;;;;;;;36.45;26.00;;;15.00;99.90;;;;;;5092709;28;20036;-66
2022/05/07 07:14:02;;;;;;;36.85;23.60;;;15.10;99.90;;;;;;5092698;28;20044;-66
2022/05/07 07:16:28;;;;;;;34.42;23.52;;;15.20;99.90;;;;;;5092314;28;20090;-66
2022/05/07 07:18:54;;;;;;;33.83;23.08;;;15.40;99.90;;;;;;5092018;28;20036;-66
2022/05/07 07:21:19;;;;;;;35.38;24.52;;;15.50;99.90;;;;;;5092610;28;20055;-66
2022/05/07 07:23:45;;;;;;;41.03;23.77;;;15.50;99.90;;;;;;5092500;28;20044;-66
2022/05/07 07:26:10;;;;;;;33.40;23.63;;;15.50;99.90;;;;;;5099007;28;20080;-67
2022/05/07 07:28:36;;;;;;;36.92;23.23;;;15.60;99.90;;;;;;5101760;28;20248;-66
2022/05/07 07:31:02;;;;;;;32.38;23.73;;;15.60;99.90;;;;;;5096637;28;20040;-66
2022/05/07 07:33:27;;;;;;;32.63;23.45;;;15.60;99.90;;;;;;5091645;28;20036;-66
2022/05/07 07:35:53;;;;;;;33.90;21.92;;;15.60;99.90;;;;;;5090807;28;20519;-67
2022/05/07 07:38:18;;;;;;;33.00;22.75;;;15.60;99.90;;;;;;5091667;28;20044;-67
2022/05/07 07:40:49;;;;;;;32.15;22.55;;;15.70;99.90;;;;;;5092034;28;20043;-66
2022/05/07 07:43:16;;;;;;;29.50;22.00;;;15.70;99.90;;;;;;5091932;28;20120;-67
2022/05/07 07:48:25;;;;;;;29.67;19.83;;;15.70;99.90;;;;;;5091442;28;20054;-67
2022/05/07 07:50:51;;;;;;;33.60;20.08;;;15.70;99.90;;;;;;5091997;28;20606;-67
2022/05/07 07:53:17;;;;;;;22.45;13.60;;;15.80;99.90;;;;;;5100887;28;20507;-66
2022/05/07 07:55:42;;;;;;;27.63;19.15;;;16.20;99.90;;;;;;5101224;28;20555;-70
2022/05/07 07:58:11;;;;;;;29.85;19.27;;;16.10;99.90;;;;;;5083446;28;20039;-71
2022/05/07 08:00:37;;;;;;;28.50;19.73;;;16.10;99.90;;;;;;5076344;28;20093;-70
2022/05/07 08:03:09;;;;;;;27.63;18.38;;;16.20;99.90;;;;;;5079379;28;20089;-68
2022/05/07 08:05:35;;;;;;;64.40;20.50;;;16.20;99.90;;;;;;5091173;28;20044;-67
2022/05/07 08:13:35;;;;;;;23.90;15.20;;;16.50;99.90;;;;;;5091888;28;20044;-68
2022/05/07 08:16:05;;;;;;;23.48;15.52;;;16.60;99.90;;;;;;5091557;28;20436;-68
2022/05/07 08:18:30;;;;;;;25.02;15.40;;;16.60;99.90;;;;;;5090455;28;20039;-68
2022/05/07 08:20:57;;;;;;;33.50;14.95;;;16.60;99.90;;;;;;5091302;28;20036;-68
2022/05/07 08:23:22;;;;;;;27.27;14.90;;;16.50;99.90;;;;;;5091471;28;20075;-67
2022/05/07 08:25:49;;;;;;;30.85;14.38;;;16.40;99.90;;;;;;5091224;28;20046;-68
2022/05/07 08:28:15;;;;;;;26.70;13.88;;;16.40;99.90;;;;;;5090237;28;20036;-68
2022/05/07 08:30:41;;;;;;;23.67;14.00;;;16.50;99.90;;;;;;5090302;28;20510;-68
2022/05/07 08:33:07;;;;;;;31.67;13.90;;;16.50;99.90;;;;;;5090134;28;20040;-69
2022/05/07 08:35:33;;;;;;;25.08;14.50;;;16.60;99.90;;;;;;5089965;28;20080;-70
2022/05/07 08:37:58;;;;;;;23.13;14.68;;;16.80;99.90;;;;;;5100845;28;20074;-70
2022/05/07 08:40:26;;;;;;;20.02;14.95;;;16.90;99.90;;;;;;5081284;28;20040;-70
2022/05/07 08:42:52;;;;;;;24.45;14.75;;;17.20;99.90;;;;;;5083465;28;20130;-67
2022/05/07 08:45:17;;;;;;;22.40;14.77;;;17.40;99.90;;;;;;5100904;28;20124;-69
2022/05/07 08:47:44;;;;;;;23.23;15.02;;;17.40;99.90;;;;;;5111361;28;20041;-70
2022/05/07 08:50:13;;;;;;;21.10;13.55;;;17.50;99.90;;;;;;5084674;28;20035;-70
2022/05/07 08:52:41;;;;;;;22.27;14.35;;;17.60;99.90;;;;;;5100158;28;20050;-71
2022/05/07 08:55:10;;;;;;;27.73;13.90;;;17.60;99.90;;;;;;5101862;28;20063;-70
2022/05/07 08:57:36;;;;;;;26.23;13.25;;;17.70;99.90;;;;;;5098522;28;20039;-70
2022/05/07 09:00:02;;;;;;;23.50;13.82;;;17.70;99.90;;;;;;5084256;28;20526;-71
2022/05/07 09:02:28;;;;;;;21.63;13.18;;;17.70;99.90;;;;;;5105200;28;20044;-71
2022/05/07 09:04:55;;;;;;;21.67;12.52;;;17.80;99.90;;;;;;5085754;28;20090;-71
2022/05/07 09:07:21;;;;;;;22.83;13.20;;;17.80;99.90;;;;;;5080601;28;20107;-71
2022/05/07 09:09:51;;;;;;;20.25;13.00;;;17.80;99.90;;;;;;5098001;28;20168;-70
2022/05/07 09:12:30;;;;;;;23.30;12.60;;;17.70;99.90;;;;;;5065662;28;20127;-70
2022/05/07 09:15:07;;;;;;;22.90;12.63;;;17.70;99.90;;;;;;5083993;28;20031;-70
2022/05/07 09:17:33;;;;;;;19.65;12.15;;;17.80;99.90;;;;;;5104712;28;20047;-70
2022/05/07 09:20:09;;;;;;;25.00;13.23;;;17.80;99.90;;;;;;5104713;28;20035;-71
2022/05/07 09:22:34;;;;;;;23.13;13.27;;;17.70;99.90;;;;;;5095919;28;20055;-70
2022/05/07 09:25:00;;;;;;;24.30;14.50;;;17.70;99.90;;;;;;5115186;28;20046;-70
2022/05/07 09:27:26;;;;;;;22.98;12.50;;;17.70;99.90;;;;;;5115082;28;20457;-71
2022/05/07 09:30:02;;;;;;;26.17;13.07;;;17.70;99.90;;;;;;5114609;28;20036;-71
2022/05/07 09:32:36;;;;;;;23.17;13.43;;;17.90;99.90;;;;;;5095846;28;20088;-71
2022/05/07 09:38:01;;;;;;;25.25;13.75;;;17.70;99.90;;;;;;5114539;28;20051;-71
2022/05/07 09:40:27;;;;;;;29.17;14.07;;;17.70;99.90;;;;;;5113800;28;20058;-70
2022/05/07 09:42:57;;;;;;;23.75;13.73;;;17.70;99.90;;;;;;5095319;28;20055;-70
2022/05/07 09:45:30;;;;;;;26.08;14.07;;;17.70;99.90;;;;;;5113831;28;20039;-71
2022/05/07 09:47:58;;;;;;;24.25;14.68;;;17.70;99.90;;;;;;5113865;28;20042;-70
2022/05/07 09:58:37;;;;;;;29.08;16.75;;;17.90;99.90;;;;;;5114480;28;20129;-70
2022/05/07 10:01:25;;;;;;;23.60;15.18;;;17.90;99.90;;;;;;5096994;28;20107;-71
2022/05/07 10:04:05;;;;;;;26.65;16.75;;;17.90;99.90;;;;;;5116050;28;20050;-71
2022/05/07 10:07:01;;;;;;;25.77;16.13;;;18.00;99.90;;;;;;5115846;28;20046;-71
2022/05/07 10:09:48;;;;;;;24.92;15.80;;;17.90;99.90;;;;;;5094838;28;20403;-70
2022/05/07 10:12:19;;;;;;;27.30;15.48;;;18.00;99.90;;;;;;5114058;28;20032;-70
2022/05/07 10:14:45;;;;;;;25.25;15.73;;;18.10;99.90;;;;;;5114316;28;20043;-71
2022/05/07 10:17:13;;;;;;;26.08;15.60;;;18.10;99.90;;;;;;5114147;28;20522;-71
2022/05/07 10:19:42;;;;;;;29.02;16.33;;;18.20;99.90;;;;;;5113940;28;20046;-70
2022/05/07 10:22:24;;;;;;;26.45;16.92;;;18.20;99.90;;;;;;5112930;28;20043;-70
2022/05/07 10:25:06;;;;;;;27.05;16.80;;;18.20;99.90;;;;;;5095609;28;20079;-70
2022/05/07 10:27:43;;;;;;;25.20;16.35;;;18.40;99.90;;;;;;5113335;28;20028;-70
2022/05/07 10:30:13;;;;;;;35.33;17.67;;;18.40;99.90;;;;;;5113556;28;20144;-70
2022/05/07 10:33:02;;;;;;;32.40;17.38;;;18.40;99.90;;;;;;5094689;28;20066;-71
2022/05/07 10:35:53;;;;;;;33.78;18.63;;;18.50;99.90;;;;;;5113879;28;20471;-71
2022/05/07 10:38:33;;;;;;;31.92;17.73;;;18.70;99.90;;;;;;5095272;28;20047;-71
2022/05/07 10:41:01;;;;;;;33.78;17.60;;;18.70;99.90;;;;;;5112862;28;20040;-69
2022/05/07 10:43:37;;;;;;;32.88;18.10;;;18.70;99.90;;;;;;5083633;28;20067;-70
2022/05/07 10:46:07;;;;;;;28.90;16.65;;;18.70;99.90;;;;;;5093012;28;20047;-70
2022/05/07 10:48:46;;;;;;;33.10;19.35;;;18.70;99.90;;;;;;5112444;28;20035;-71
2022/05/07 10:51:19;;;;;;;30.95;18.73;;;18.70;99.90;;;;;;5095073;28;20043;-70
2022/05/07 10:53:46;;;;;;;31.63;19.13;;;18.70;99.90;;;;;;5113645;28;20039;-69
2022/05/07 10:56:20;;;;;;;36.15;20.65;;;18.80;99.90;;;;;;5113412;28;20067;-70
2022/05/07 10:58:50;;;;;;;30.20;19.05;;;19.00;99.90;;;;;;5113027;28;20046;-71
2022/05/07 11:01:17;;;;;;;34.28;20.52;;;19.00;99.90;;;;;;5094296;28;20088;-68
2022/05/07 11:03:43;;;;;;;31.55;20.27;;;19.00;99.90;;;;;;5094635;28;20059;-66
2022/05/07 11:06:09;;;;;;;34.30;21.60;;;19.00;99.90;;;;;;5113229;28;20036;-66
2022/05/07 11:08:49;;;;;;;31.90;21.52;;;19.10;99.90;;;;;;5112258;28;20050;-67
2022/05/07 11:11:16;;;;;;;36.60;21.27;;;19.30;99.90;;;;;;5112430;28;20046;-67
2022/05/07 11:13:49;;;;;;;33.38;21.13;;;19.40;99.90;;;;;;5112895;28;20031;-66
2022/05/07 11:16:16;;;;;;;35.17;20.80;;;19.50;99.90;;;;;;5112879;28;20403;-65
2022/05/07 11:18:49;;;;;;;28.67;19.52;;;19.50;99.90;;;;;;5112787;28;20038;-65
2022/05/07 11:21:14;;;;;;;;;;;19.70;99.90;;;;;;5112678;28;20028;-68
2022/05/07 11:23:42;;;;;;;27.55;18.70;;;19.70;99.90;;;;;;5112570;28;20504;-67
2022/05/07 11:26:16;;;;;;;32.17;19.52;;;19.60;99.90;;;;;;5112946;28;20047;-65
2022/05/07 11:28:43;;;;;;;27.02;19.38;;;19.60;99.90;;;;;;5094349;28;20039;-65
2022/05/07 11:31:10;;;;;;;34.92;19.98;;;19.50;99.90;;;;;;5112626;28;20040;-68
2022/05/07 11:33:36;;;;;;;33.58;20.83;;;19.50;99.90;;;;;;5112736;28;20100;-67
2022/05/07 11:36:07;;;;;;;33.65;19.75;;;19.60;99.90;;;;;;5112611;28;20515;-67
2022/05/07 11:38:36;;;;;;;27.33;20.20;;;19.60;99.90;;;;;;5111243;28;20054;-67
2022/05/07 11:41:14;;;;;;;29.50;20.00;;;19.80;99.90;;;;;;5112223;28;20035;-67
2022/05/07 11:46:25;;;;;;;29.58;20.70;;;20.00;99.90;;;;;;5112482;28;20104;-68
2022/05/07 11:48:51;;;;;;;35.80;21.88;;;19.60;99.90;;;;;;5112201;28;20413;-67
2022/05/07 11:51:24;;;;;;;25.80;18.52;;;19.80;99.90;;;;;;5093850;28;20051;-67
2022/05/07 11:53:50;;;;;;;30.27;19.35;;;19.90;99.90;;;;;;5112300;28;20040;-68
2022/05/07 11:56:15;;;;;;;31.40;19.33;;;19.90;99.90;;;;;;5090019;28;20055;-67
2022/05/07 11:58:46;;;;;;;29.65;17.70;;;19.80;99.90;;;;;;5100676;28;20154;-66
2022/05/07 12:01:22;;;;;;;26.42;17.80;;;19.90;99.90;;;;;;5108440;27;20300;-67
2022/05/07 12:03:49;;;;;;;26.00;17.92;;;19.70;99.90;;;;;;5108633;28;20063;-67
2022/05/07 12:06:27;;;;;;;25.33;15.35;;;19.60;99.90;;;;;;5108253;28;20035;-67
2022/05/07 12:08:53;;;;;;;23.95;17.35;;;19.60;99.90;;;;;;5108499;28;20038;-67
2022/05/07 12:11:20;;;;;;;24.05;17.17;;;19.70;99.90;;;;;;5108703;28;20118;-66
2022/05/07 12:13:46;;;;;;;24.27;14.65;;;19.90;99.90;;;;;;5106724;28;20553;-69
2022/05/07 12:18:56;;;;;;;26.13;16.27;;;19.40;99.90;;;;;;5107467;28;20047;-68
2022/05/07 12:29:48;;;;;;;24.55;17.65;;;19.70;99.90;;;;;;5107624;28;20621;-67
2022/05/07 12:29:52;;;;;;;22.50;16.63;;;20.10;99.90;;;;;;5108217;28;20048;-70
2022/05/07 12:32:24;;;;;;;27.70;17.40;;;20.20;99.90;;;;;;5108230;28;20483;-67
2022/05/07 12:34:49;;;;;;;24.63;15.48;;;20.00;99.90;;;;;;5108283;28;20055;-67
2022/05/07 12:37:15;;;;;;;25.52;15.50;;;20.00;99.90;;;;;;5108048;28;20048;-68
2022/05/07 12:39:42;;;;;;;21.25;15.05;;;19.90;99.90;;;;;;5107597;28;20043;-67
2022/05/07 12:42:09;;;;;;;29.65;18.73;;;20.00;99.90;;;;;;5106661;28;20047;-67
2022/05/07 12:44:35;;;;;;;24.17;17.40;;;19.90;99.90;;;;;;5108156;28;20047;-68
2022/05/07 12:47:02;;;;;;;25.55;17.50;;;20.00;99.90;;;;;;5107932;28;20040;-67
2022/05/07 12:49:28;;;;;;;26.42;17.60;;;20.00;99.90;;;;;;5107693;28;20459;-67
2022/05/07 12:51:53;;;;;;;27.05;16.42;;;19.90;99.90;;;;;;5107922;28;20114;-68
2022/05/07 12:54:21;;;;;;;26.63;16.70;;;19.80;99.90;;;;;;5107821;28;20054;-67
2022/05/07 12:56:47;;;;;;;24.73;16.48;;;19.70;99.90;;;;;;5107795;28;20040;-68
2022/05/07 12:59:13;;;;;;;24.63;16.85;;;19.60;99.90;;;;;;5105909;28;20040;-70
2022/05/07 13:01:38;;;;;;;23.58;17.20;;;19.60;99.90;;;;;;5107837;28;20046;-67
2022/05/07 13:04:04;;;;;;;32.05;17.00;;;19.80;99.90;;;;;;5107718;28;20111;-67
2022/05/07 13:06:30;;;;;;;27.58;16.02;;;19.80;99.90;;;;;;5107538;28;20522;-68
2022/05/07 13:08:58;;;;;;;22.67;15.40;;;19.80;99.90;;;;;;5107196;28;20031;-67